sensor_id;sensor_type;location;lat;lon;timestamp;P1;durP1;ratioP1;P2;durP2;ratioP2
80334;SDS011;69653;52.674;13.574;2023-11-19T00:01:04;9.60;;;4.88;;
80334;SDS011;69653;52.674;13.574;2023-11-19T00:03:30;8.82;;;5.15;;
80334;SDS011;69653;52.674;13.574;2023-11-19T00:05:55;8.70;;;5.22;;
80334;SDS011;69653;52.674;13.574;2023-11-19T00:08:21;9.67;;;4.83;;
80334;SDS011;69653;52.674;13.574;2023-11-19T00:10:46;9.10;;;5.03;;
80334;SDS011;69653;52.674;13.574;2023-11-19T00:13:12;8.80;;;4.93;;
80334;SDS011;69653;52.674;13.574;2023-11-19T00:15:37;9.30;;;5.03;;
80334;SDS011;69653;52.674;13.574;2023-11-19T00:18:02;9.63;;;5.90;;
80334;SDS011;69653;52.674;13.574;2023-11-19T00:20:29;11.65;;;5.30;;
80334;SDS011;69653;52.674;13.574;2023-11-19T00:22:55;9.68;;;5.28;;
80334;SDS011;69653;52.674;13.574;2023-11-19T00:25:21;8.97;;;5.07;;
80334;SDS011;69653;52.674;13.574;2023-11-19T00:27:49;9.60;;;5.15;;
80334;SDS011;69653;52.674;13.574;2023-11-19T00:30:15;10.45;;;5.47;;
80334;SDS011;69653;52.674;13.574;2023-11-19T00:32:41;9.98;;;5.45;;
80334;SDS011;69653;52.674;13.574;2023-11-19T00:35:07;9.20;;;5.57;;
80334;SDS011;69653;52.674;13.574;2023-11-19T00:37:33;12.05;;;5.43;;
80334;SDS011;69653;52.674;13.574;2023-11-19T00:39:58;9.63;;;5.10;;
80334;SDS011;69653;52.674;13.574;2023-11-19T00:42:24;10.20;;;5.37;;
80334;SDS011;69653;52.674;13.574;2023-11-19T00:44:52;8.98;;;5.28;;
80334;SDS011;69653;52.674;13.574;2023-11-19T00:47:17;8.05;;;4.80;;
80334;SDS011;69653;52.674;13.574;2023-11-19T00:49:47;8.80;;;4.65;;
80334;SDS011;69653;52.674;13.574;2023-11-19T00:52:16;12.73;;;5.38;;
80334;SDS011;69653;52.674;13.574;2023-11-19T00:54:41;10.40;;;5.43;;
80334;SDS011;69653;52.674;13.574;2023-11-19T00:57:07;10.70;;;5.55;;
80334;SDS011;69653;52.674;13.574;2023-11-19T00:59:32;9.68;;;4.85;;
80334;SDS011;69653;52.674;13.574;2023-11-19T01:01:58;8.47;;;4.57;;
80334;SDS011;69653;52.674;13.574;2023-11-19T01:04:28;9.88;;;5.18;;
80334;SDS011;69653;52.674;13.574;2023-11-19T01:06:53;9.32;;;5.28;;
80334;SDS011;69653;52.674;13.574;2023-11-19T01:09:19;8.77;;;4.68;;
80334;SDS011;69653;52.674;13.574;2023-11-19T01:11:44;10.60;;;5.80;;
80334;SDS011;69653;52.674;13.574;2023-11-19T01:14:10;9.77;;;5.30;;
80334;SDS011;69653;52.674;13.574;2023-11-19T01:16:35;8.80;;;4.77;;
80334;SDS011;69653;52.674;13.574;2023-11-19T01:19:01;11.82;;;4.78;;
80334;SDS011;69653;52.674;13.574;2023-11-19T01:21:29;8.88;;;4.90;;
80334;SDS011;69653;52.674;13.574;2023-11-19T01:23:55;7.57;;;4.22;;
80334;SDS011;69653;52.674;13.574;2023-11-19T01:26:22;10.23;;;5.03;;
80334;SDS011;69653;52.674;13.574;2023-11-19T01:28:47;10.13;;;5.17;;
80334;SDS011;69653;52.674;13.574;2023-11-19T01:31:16;10.02;;;5.07;;
80334;SDS011;69653;52.674;13.574;2023-11-19T01:33:42;8.55;;;4.63;;
80334;SDS011;69653;52.674;13.574;2023-11-19T01:36:07;10.35;;;5.28;;
80334;SDS011;69653;52.674;13.574;2023-11-19T01:38:34;7.55;;;4.95;;
80334;SDS011;69653;52.674;13.574;2023-11-19T01:41:00;8.60;;;4.65;;
80334;SDS011;69653;52.674;13.574;2023-11-19T01:43:47;10.48;;;5.00;;
80334;SDS011;69653;52.674;13.574;2023-11-19T01:46:12;8.48;;;5.15;;
80334;SDS011;69653;52.674;13.574;2023-11-19T01:48:40;8.70;;;4.45;;
80334;SDS011;69653;52.674;13.574;2023-11-19T01:51:07;7.78;;;4.35;;
80334;SDS011;69653;52.674;13.574;2023-11-19T01:53:33;13.15;;;5.18;;
80334;SDS011;69653;52.674;13.574;2023-11-19T01:56:01;7.28;;;4.75;;
80334;SDS011;69653;52.674;13.574;2023-11-19T01:58:28;7.82;;;4.68;;
80334;SDS011;69653;52.674;13.574;2023-11-19T02:00:55;8.65;;;4.85;;
80334;SDS011;69653;52.674;13.574;2023-11-19T02:03:22;7.70;;;4.32;;
80334;SDS011;69653;52.674;13.574;2023-11-19T02:05:48;10.63;;;5.00;;
80334;SDS011;69653;52.674;13.574;2023-11-19T02:08:14;8.00;;;4.75;;
80334;SDS011;69653;52.674;13.574;2023-11-19T02:10:39;7.70;;;4.63;;
80334;SDS011;69653;52.674;13.574;2023-11-19T02:13:05;9.67;;;5.20;;
80334;SDS011;69653;52.674;13.574;2023-11-19T02:15:31;7.90;;;4.75;;
80334;SDS011;69653;52.674;13.574;2023-11-19T02:17:57;8.82;;;4.57;;
80334;SDS011;69653;52.674;13.574;2023-11-19T02:20:41;7.60;;;4.30;;
80334;SDS011;69653;52.674;13.574;2023-11-19T02:23:07;8.95;;;4.50;;
80334;SDS011;69653;52.674;13.574;2023-11-19T02:25:32;8.23;;;4.97;;
80334;SDS011;69653;52.674;13.574;2023-11-19T02:27:59;8.00;;;4.00;;
80334;SDS011;69653;52.674;13.574;2023-11-19T02:30:27;7.68;;;4.13;;
80334;SDS011;69653;52.674;13.574;2023-11-19T02:32:54;8.05;;;4.40;;
80334;SDS011;69653;52.674;13.574;2023-11-19T02:35:22;7.20;;;4.50;;
80334;SDS011;69653;52.674;13.574;2023-11-19T02:37:47;7.05;;;4.50;;
80334;SDS011;69653;52.674;13.574;2023-11-19T02:40:13;8.32;;;4.78;;
80334;SDS011;69653;52.674;13.574;2023-11-19T02:42:38;8.40;;;4.75;;
80334;SDS011;69653;52.674;13.574;2023-11-19T02:45:04;8.67;;;5.30;;
80334;SDS011;69653;52.674;13.574;2023-11-19T02:47:31;8.90;;;4.38;;
80334;SDS011;69653;52.674;13.574;2023-11-19T02:49:56;8.40;;;5.13;;
80334;SDS011;69653;52.674;13.574;2023-11-19T02:52:22;8.90;;;4.75;;
80334;SDS011;69653;52.674;13.574;2023-11-19T02:54:48;9.60;;;4.37;;
80334;SDS011;69653;52.674;13.574;2023-11-19T02:57:13;9.18;;;5.00;;
80334;SDS011;69653;52.674;13.574;2023-11-19T02:59:39;8.00;;;4.80;;
80334;SDS011;69653;52.674;13.574;2023-11-19T03:02:06;8.38;;;4.68;;
80334;SDS011;69653;52.674;13.574;2023-11-19T03:04:36;7.78;;;4.07;;
80334;SDS011;69653;52.674;13.574;2023-11-19T03:07:04;8.70;;;4.45;;
80334;SDS011;69653;52.674;13.574;2023-11-19T03:09:30;9.43;;;4.75;;
80334;SDS011;69653;52.674;13.574;2023-11-19T03:11:55;8.27;;;4.53;;
80334;SDS011;69653;52.674;13.574;2023-11-19T03:14:20;9.10;;;5.07;;
80334;SDS011;69653;52.674;13.574;2023-11-19T03:16:47;9.25;;;4.85;;
80334;SDS011;69653;52.674;13.574;2023-11-19T03:19:13;8.38;;;4.53;;
80334;SDS011;69653;52.674;13.574;2023-11-19T03:21:38;8.77;;;4.90;;
80334;SDS011;69653;52.674;13.574;2023-11-19T03:24:04;7.70;;;4.43;;
80334;SDS011;69653;52.674;13.574;2023-11-19T03:26:29;9.98;;;5.20;;
80334;SDS011;69653;52.674;13.574;2023-11-19T03:28:55;9.32;;;5.05;;
80334;SDS011;69653;52.674;13.574;2023-11-19T03:31:22;8.35;;;4.68;;
80334;SDS011;69653;52.674;13.574;2023-11-19T03:33:47;8.77;;;4.20;;
80334;SDS011;69653;52.674;13.574;2023-11-19T03:36:13;7.53;;;4.40;;
80334;SDS011;69653;52.674;13.574;2023-11-19T03:38:38;9.17;;;5.10;;
80334;SDS011;69653;52.674;13.574;2023-11-19T03:41:10;7.50;;;4.47;;
80334;SDS011;69653;52.674;13.574;2023-11-19T03:43:36;9.05;;;4.97;;
80334;SDS011;69653;52.674;13.574;2023-11-19T03:46:02;9.13;;;4.93;;
80334;SDS011;69653;52.674;13.574;2023-11-19T03:48:27;8.75;;;4.10;;
80334;SDS011;69653;52.674;13.574;2023-11-19T03:50:52;8.13;;;4.43;;
80334;SDS011;69653;52.674;13.574;2023-11-19T03:53:18;8.03;;;4.83;;
80334;SDS011;69653;52.674;13.574;2023-11-19T03:55:43;9.80;;;4.57;;
80334;SDS011;69653;52.674;13.574;2023-11-19T03:58:09;9.23;;;4.90;;
80334;SDS011;69653;52.674;13.574;2023-11-19T04:00:34;7.97;;;4.23;;
80334;SDS011;69653;52.674;13.574;2023-11-19T04:03:00;8.65;;;4.85;;
80334;SDS011;69653;52.674;13.574;2023-11-19T04:05:25;9.80;;;4.57;;
80334;SDS011;69653;52.674;13.574;2023-11-19T04:07:51;7.78;;;4.45;;
80334;SDS011;69653;52.674;13.574;2023-11-19T04:10:16;7.93;;;4.22;;
80334;SDS011;69653;52.674;13.574;2023-11-19T04:12:42;8.52;;;4.88;;
80334;SDS011;69653;52.674;13.574;2023-11-19T04:15:08;9.35;;;4.80;;
80334;SDS011;69653;52.674;13.574;2023-11-19T04:17:33;8.43;;;4.97;;
80334;SDS011;69653;52.674;13.574;2023-11-19T04:19:59;9.02;;;5.20;;
80334;SDS011;69653;52.674;13.574;2023-11-19T04:22:24;8.83;;;4.73;;
80334;SDS011;69653;52.674;13.574;2023-11-19T04:24:49;9.33;;;4.63;;
80334;SDS011;69653;52.674;13.574;2023-11-19T04:27:15;9.40;;;4.67;;
80334;SDS011;69653;52.674;13.574;2023-11-19T04:29:40;8.10;;;4.27;;
80334;SDS011;69653;52.674;13.574;2023-11-19T04:32:06;11.00;;;4.80;;
80334;SDS011;69653;52.674;13.574;2023-11-19T04:34:32;8.60;;;4.43;;
80334;SDS011;69653;52.674;13.574;2023-11-19T04:36:57;7.80;;;4.22;;
80334;SDS011;69653;52.674;13.574;2023-11-19T04:39:26;10.02;;;4.97;;
80334;SDS011;69653;52.674;13.574;2023-11-19T04:41:51;8.00;;;4.47;;
80334;SDS011;69653;52.674;13.574;2023-11-19T04:44:18;7.57;;;4.22;;
80334;SDS011;69653;52.674;13.574;2023-11-19T04:46:43;7.88;;;4.50;;
80334;SDS011;69653;52.674;13.574;2023-11-19T04:49:10;8.38;;;4.53;;
80334;SDS011;69653;52.674;13.574;2023-11-19T04:51:42;8.45;;;4.45;;
80334;SDS011;69653;52.674;13.574;2023-11-19T04:54:09;8.63;;;4.20;;
80334;SDS011;69653;52.674;13.574;2023-11-19T04:56:35;7.88;;;4.38;;
80334;SDS011;69653;52.674;13.574;2023-11-19T04:59:02;8.25;;;4.32;;
80334;SDS011;69653;52.674;13.574;2023-11-19T05:01:28;9.15;;;4.85;;
80334;SDS011;69653;52.674;13.574;2023-11-19T05:03:53;10.80;;;5.53;;
80334;SDS011;69653;52.674;13.574;2023-11-19T05:06:19;8.60;;;4.30;;
80334;SDS011;69653;52.674;13.574;2023-11-19T05:08:44;8.45;;;4.47;;
80334;SDS011;69653;52.674;13.574;2023-11-19T05:11:10;8.43;;;4.60;;
80334;SDS011;69653;52.674;13.574;2023-11-19T05:13:37;9.10;;;4.70;;
80334;SDS011;69653;52.674;13.574;2023-11-19T05:16:03;8.05;;;4.75;;
80334;SDS011;69653;52.674;13.574;2023-11-19T05:18:29;8.63;;;4.88;;
80334;SDS011;69653;52.674;13.574;2023-11-19T05:20:55;9.00;;;4.57;;
80334;SDS011;69653;52.674;13.574;2023-11-19T05:23:20;9.48;;;5.20;;
80334;SDS011;69653;52.674;13.574;2023-11-19T05:25:46;9.57;;;5.90;;
80334;SDS011;69653;52.674;13.574;2023-11-19T05:28:12;8.73;;;5.20;;
80334;SDS011;69653;52.674;13.574;2023-11-19T05:30:39;10.63;;;5.45;;
80334;SDS011;69653;52.674;13.574;2023-11-19T05:33:05;10.43;;;5.75;;
80334;SDS011;69653;52.674;13.574;2023-11-19T05:35:31;10.35;;;5.60;;
80334;SDS011;69653;52.674;13.574;2023-11-19T05:37:56;8.70;;;5.10;;
80334;SDS011;69653;52.674;13.574;2023-11-19T05:40:22;10.13;;;5.47;;
80334;SDS011;69653;52.674;13.574;2023-11-19T05:42:48;8.85;;;5.07;;
80334;SDS011;69653;52.674;13.574;2023-11-19T05:45:13;7.60;;;4.73;;
80334;SDS011;69653;52.674;13.574;2023-11-19T05:47:38;8.50;;;5.00;;
80334;SDS011;69653;52.674;13.574;2023-11-19T05:50:04;8.90;;;4.60;;
80334;SDS011;69653;52.674;13.574;2023-11-19T05:52:31;8.25;;;4.40;;
80334;SDS011;69653;52.674;13.574;2023-11-19T05:54:59;6.75;;;4.10;;
80334;SDS011;69653;52.674;13.574;2023-11-19T05:57:28;6.90;;;3.90;;
80334;SDS011;69653;52.674;13.574;2023-11-19T05:59:54;9.57;;;4.85;;
80334;SDS011;69653;52.674;13.574;2023-11-19T06:02:19;8.05;;;4.50;;
80334;SDS011;69653;52.674;13.574;2023-11-19T06:04:45;7.90;;;4.93;;
80334;SDS011;69653;52.674;13.574;2023-11-19T06:07:12;6.60;;;3.92;;
80334;SDS011;69653;52.674;13.574;2023-11-19T06:09:38;8.77;;;4.72;;
80334;SDS011;69653;52.674;13.574;2023-11-19T06:12:03;7.93;;;4.57;;
80334;SDS011;69653;52.674;13.574;2023-11-19T06:14:31;10.27;;;4.82;;
80334;SDS011;69653;52.674;13.574;2023-11-19T06:16:56;9.07;;;4.00;;
80334;SDS011;69653;52.674;13.574;2023-11-19T06:19:22;7.63;;;4.15;;
80334;SDS011;69653;52.674;13.574;2023-11-19T06:21:49;7.20;;;4.05;;
80334;SDS011;69653;52.674;13.574;2023-11-19T06:24:14;7.00;;;4.30;;
80334;SDS011;69653;52.674;13.574;2023-11-19T06:26:40;7.37;;;4.27;;
80334;SDS011;69653;52.674;13.574;2023-11-19T06:29:05;6.33;;;3.50;;
80334;SDS011;69653;52.674;13.574;2023-11-19T06:31:31;7.03;;;3.78;;
80334;SDS011;69653;52.674;13.574;2023-11-19T06:33:56;7.40;;;4.00;;
80334;SDS011;69653;52.674;13.574;2023-11-19T06:36:21;6.60;;;3.70;;
80334;SDS011;69653;52.674;13.574;2023-11-19T06:38:46;6.80;;;3.90;;
80334;SDS011;69653;52.674;13.574;2023-11-19T06:41:12;6.63;;;3.57;;
80334;SDS011;69653;52.674;13.574;2023-11-19T06:43:37;5.10;;;2.67;;
80334;SDS011;69653;52.674;13.574;2023-11-19T06:46:03;6.63;;;3.60;;
80334;SDS011;69653;52.674;13.574;2023-11-19T06:48:31;5.40;;;3.63;;
80334;SDS011;69653;52.674;13.574;2023-11-19T06:50:59;8.25;;;3.35;;
80334;SDS011;69653;52.674;13.574;2023-11-19T06:53:25;6.68;;;3.75;;
80334;SDS011;69653;52.674;13.574;2023-11-19T06:55:52;5.80;;;3.35;;
80334;SDS011;69653;52.674;13.574;2023-11-19T06:58:18;6.25;;;3.47;;
80334;SDS011;69653;52.674;13.574;2023-11-19T07:00:43;7.47;;;4.15;;
80334;SDS011;69653;52.674;13.574;2023-11-19T07:03:10;7.43;;;3.75;;
80334;SDS011;69653;52.674;13.574;2023-11-19T07:05:36;7.93;;;3.70;;
80334;SDS011;69653;52.674;13.574;2023-11-19T07:08:03;5.95;;;2.88;;
80334;SDS011;69653;52.674;13.574;2023-11-19T07:10:32;5.50;;;3.22;;
80334;SDS011;69653;52.674;13.574;2023-11-19T07:12:57;6.20;;;3.23;;
80334;SDS011;69653;52.674;13.574;2023-11-19T07:15:22;5.07;;;2.50;;
80334;SDS011;69653;52.674;13.574;2023-11-19T07:17:48;6.10;;;3.17;;
80334;SDS011;69653;52.674;13.574;2023-11-19T07:20:13;5.80;;;3.80;;
80334;SDS011;69653;52.674;13.574;2023-11-19T07:22:41;5.78;;;3.00;;
80334;SDS011;69653;52.674;13.574;2023-11-19T07:25:08;6.00;;;3.30;;
80334;SDS011;69653;52.674;13.574;2023-11-19T07:27:33;6.10;;;3.60;;
80334;SDS011;69653;52.674;13.574;2023-11-19T07:29:59;4.97;;;2.97;;
80334;SDS011;69653;52.674;13.574;2023-11-19T07:32:24;5.93;;;2.60;;
80334;SDS011;69653;52.674;13.574;2023-11-19T07:34:49;6.27;;;3.67;;
80334;SDS011;69653;52.674;13.574;2023-11-19T07:37:15;6.57;;;3.08;;
80334;SDS011;69653;52.674;13.574;2023-11-19T07:39:42;6.25;;;3.22;;
80334;SDS011;69653;52.674;13.574;2023-11-19T07:42:07;5.63;;;2.93;;
80334;SDS011;69653;52.674;13.574;2023-11-19T07:44:34;5.18;;;3.00;;
80334;SDS011;69653;52.674;13.574;2023-11-19T07:46:59;6.77;;;3.77;;
80334;SDS011;69653;52.674;13.574;2023-11-19T07:49:24;5.78;;;3.05;;
80334;SDS011;69653;52.674;13.574;2023-11-19T07:51:50;5.07;;;2.73;;
80334;SDS011;69653;52.674;13.574;2023-11-19T07:54:15;5.63;;;3.47;;
80334;SDS011;69653;52.674;13.574;2023-11-19T07:56:41;5.67;;;2.63;;
80334;SDS011;69653;52.674;13.574;2023-11-19T07:59:06;5.17;;;2.50;;
80334;SDS011;69653;52.674;13.574;2023-11-19T08:01:31;4.93;;;2.90;;
80334;SDS011;69653;52.674;13.574;2023-11-19T08:03:57;6.07;;;3.15;;
80334;SDS011;69653;52.674;13.574;2023-11-19T08:06:22;6.97;;;2.50;;
80334;SDS011;69653;52.674;13.574;2023-11-19T08:08:48;5.23;;;3.00;;
80334;SDS011;69653;52.674;13.574;2023-11-19T08:11:13;5.43;;;3.50;;
80334;SDS011;69653;52.674;13.574;2023-11-19T08:13:40;7.32;;;3.55;;
80334;SDS011;69653;52.674;13.574;2023-11-19T08:16:05;5.90;;;3.30;;
80334;SDS011;69653;52.674;13.574;2023-11-19T08:18:31;6.45;;;3.60;;
80334;SDS011;69653;52.674;13.574;2023-11-19T08:20:56;5.70;;;2.80;;
80334;SDS011;69653;52.674;13.574;2023-11-19T08:23:24;6.28;;;3.60;;
80334;SDS011;69653;52.674;13.574;2023-11-19T08:25:50;7.63;;;3.83;;
80334;SDS011;69653;52.674;13.574;2023-11-19T08:28:16;5.82;;;3.70;;
80334;SDS011;69653;52.674;13.574;2023-11-19T08:30:41;5.97;;;3.23;;
80334;SDS011;69653;52.674;13.574;2023-11-19T08:33:09;5.30;;;3.00;;
80334;SDS011;69653;52.674;13.574;2023-11-19T08:35:34;5.93;;;3.05;;
80334;SDS011;69653;52.674;13.574;2023-11-19T08:38:00;6.57;;;4.00;;
80334;SDS011;69653;52.674;13.574;2023-11-19T08:40:25;5.30;;;2.93;;
80334;SDS011;69653;52.674;13.574;2023-11-19T08:42:54;6.65;;;3.22;;
80334;SDS011;69653;52.674;13.574;2023-11-19T08:45:21;7.25;;;3.88;;
80334;SDS011;69653;52.674;13.574;2023-11-19T08:47:46;6.10;;;3.33;;
80334;SDS011;69653;52.674;13.574;2023-11-19T08:50:11;6.95;;;3.10;;
80334;SDS011;69653;52.674;13.574;2023-11-19T08:52:37;6.63;;;3.70;;
80334;SDS011;69653;52.674;13.574;2023-11-19T08:55:03;7.20;;;4.13;;
80334;SDS011;69653;52.674;13.574;2023-11-19T08:57:30;6.63;;;3.53;;
80334;SDS011;69653;52.674;13.574;2023-11-19T08:59:56;6.18;;;3.42;;
80334;SDS011;69653;52.674;13.574;2023-11-19T09:02:21;7.60;;;3.70;;
80334;SDS011;69653;52.674;13.574;2023-11-19T09:04:46;6.83;;;3.63;;
80334;SDS011;69653;52.674;13.574;2023-11-19T09:07:11;6.37;;;3.37;;
80334;SDS011;69653;52.674;13.574;2023-11-19T09:09:37;7.68;;;4.45;;
80334;SDS011;69653;52.674;13.574;2023-11-19T09:12:03;7.38;;;3.92;;
80334;SDS011;69653;52.674;13.574;2023-11-19T09:14:29;7.40;;;4.60;;
80334;SDS011;69653;52.674;13.574;2023-11-19T09:16:55;8.85;;;4.28;;
80334;SDS011;69653;52.674;13.574;2023-11-19T09:19:21;7.75;;;5.25;;
80334;SDS011;69653;52.674;13.574;2023-11-19T09:21:46;11.77;;;6.28;;
80334;SDS011;69653;52.674;13.574;2023-11-19T09:24:14;8.02;;;5.13;;
80334;SDS011;69653;52.674;13.574;2023-11-19T09:26:39;8.43;;;4.57;;
80334;SDS011;69653;52.674;13.574;2023-11-19T09:29:06;7.80;;;5.10;;
80334;SDS011;69653;52.674;13.574;2023-11-19T09:31:32;8.60;;;4.65;;
80334;SDS011;69653;52.674;13.574;2023-11-19T09:33:58;8.60;;;4.97;;
80334;SDS011;69653;52.674;13.574;2023-11-19T09:36:23;8.23;;;4.83;;
80334;SDS011;69653;52.674;13.574;2023-11-19T09:38:48;8.27;;;5.23;;
80334;SDS011;69653;52.674;13.574;2023-11-19T09:41:14;10.10;;;4.63;;
80334;SDS011;69653;52.674;13.574;2023-11-19T09:43:40;10.02;;;4.85;;
80334;SDS011;69653;52.674;13.574;2023-11-19T09:46:07;8.95;;;5.25;;
80334;SDS011;69653;52.674;13.574;2023-11-19T09:48:36;8.88;;;5.72;;
80334;SDS011;69653;52.674;13.574;2023-11-19T09:51:04;9.60;;;5.50;;
80334;SDS011;69653;52.674;13.574;2023-11-19T09:53:30;10.90;;;5.68;;
80334;SDS011;69653;52.674;13.574;2023-11-19T09:55:57;9.93;;;6.22;;
80334;SDS011;69653;52.674;13.574;2023-11-19T09:58:34;9.77;;;5.53;;
80334;SDS011;69653;52.674;13.574;2023-11-19T10:01:00;9.90;;;6.32;;
80334;SDS011;69653;52.674;13.574;2023-11-19T10:03:27;9.50;;;6.10;;
80334;SDS011;69653;52.674;13.574;2023-11-19T10:05:58;10.10;;;5.50;;
80334;SDS011;69653;52.674;13.574;2023-11-19T10:08:25;9.90;;;6.45;;
80334;SDS011;69653;52.674;13.574;2023-11-19T10:10:51;10.83;;;5.63;;
80334;SDS011;69653;52.674;13.574;2023-11-19T10:13:17;11.93;;;6.65;;
80334;SDS011;69653;52.674;13.574;2023-11-19T10:15:43;10.85;;;5.88;;
80334;SDS011;69653;52.674;13.574;2023-11-19T10:18:09;9.23;;;5.47;;
80334;SDS011;69653;52.674;13.574;2023-11-19T10:20:35;8.48;;;5.38;;
80334;SDS011;69653;52.674;13.574;2023-11-19T10:23:06;9.95;;;5.53;;
80334;SDS011;69653;52.674;13.574;2023-11-19T10:25:31;7.93;;;4.60;;
80334;SDS011;69653;52.674;13.574;2023-11-19T10:27:58;8.63;;;4.97;;
80334;SDS011;69653;52.674;13.574;2023-11-19T10:30:27;9.33;;;5.47;;
80334;SDS011;69653;52.674;13.574;2023-11-19T10:35:36;8.20;;;4.78;;
80334;SDS011;69653;52.674;13.574;2023-11-19T10:38:18;9.63;;;5.72;;
80334;SDS011;69653;52.674;13.574;2023-11-19T10:40:43;10.07;;;4.83;;
80334;SDS011;69653;52.674;13.574;2023-11-19T10:43:09;8.40;;;4.40;;
80334;SDS011;69653;52.674;13.574;2023-11-19T10:45:35;12.07;;;4.93;;
80334;SDS011;69653;52.674;13.574;2023-11-19T10:48:02;7.70;;;4.35;;
80334;SDS011;69653;52.674;13.574;2023-11-19T10:50:38;8.48;;;4.85;;
80334;SDS011;69653;52.674;13.574;2023-11-19T10:53:05;7.82;;;4.00;;
80334;SDS011;69653;52.674;13.574;2023-11-19T10:55:32;7.20;;;3.65;;
80334;SDS011;69653;52.674;13.574;2023-11-19T10:58:03;10.88;;;3.88;;
80334;SDS011;69653;52.674;13.574;2023-11-19T11:00:34;7.03;;;3.35;;
80334;SDS011;69653;52.674;13.574;2023-11-19T11:03:22;10.07;;;3.67;;
80334;SDS011;69653;52.674;13.574;2023-11-19T11:05:51;5.35;;;2.75;;
80334;SDS011;69653;52.674;13.574;2023-11-19T11:08:17;5.25;;;2.75;;
80334;SDS011;69653;52.674;13.574;2023-11-19T11:10:45;5.88;;;3.00;;
80334;SDS011;69653;52.674;13.574;2023-11-19T11:13:13;6.57;;;2.80;;
80334;SDS011;69653;52.674;13.574;2023-11-19T11:15:39;11.25;;;3.08;;
80334;SDS011;69653;52.674;13.574;2023-11-19T11:18:07;8.63;;;2.83;;
80334;SDS011;69653;52.674;13.574;2023-11-19T11:20:34;6.35;;;2.75;;
80334;SDS011;69653;52.674;13.574;2023-11-19T11:39:33;7.68;;;2.60;;
80334;SDS011;69653;52.674;13.574;2023-11-19T11:55:26;11.75;;;3.13;;
80334;SDS011;69653;52.674;13.574;2023-11-19T11:58:17;8.30;;;3.15;;
80334;SDS011;69653;52.674;13.574;2023-11-19T12:00:43;8.13;;;2.40;;
80334;SDS011;69653;52.674;13.574;2023-11-19T12:03:10;10.85;;;2.58;;
80334;SDS011;69653;52.674;13.574;2023-11-19T12:05:45;8.15;;;2.80;;
80334;SDS011;69653;52.674;13.574;2023-11-19T12:08:14;11.90;;;2.63;;
80334;SDS011;69653;52.674;13.574;2023-11-19T12:13:17;10.10;;;2.90;;
80334;SDS011;69653;52.674;13.574;2023-11-19T12:18:30;7.22;;;3.10;;
80334;SDS011;69653;52.674;13.574;2023-11-19T12:20:57;10.70;;;3.55;;
80334;SDS011;69653;52.674;13.574;2023-11-19T12:23:26;10.73;;;3.15;;
80334;SDS011;69653;52.674;13.574;2023-11-19T12:25:51;13.52;;;3.65;;
80334;SDS011;69653;52.674;13.574;2023-11-19T12:28:17;10.23;;;3.47;;
80334;SDS011;69653;52.674;13.574;2023-11-19T12:30:44;10.00;;;3.50;;
80334;SDS011;69653;52.674;13.574;2023-11-19T12:33:10;11.40;;;3.05;;
80334;SDS011;69653;52.674;13.574;2023-11-19T12:35:43;10.48;;;3.05;;
80334;SDS011;69653;52.674;13.574;2023-11-19T12:38:24;13.70;;;2.85;;
80334;SDS011;69653;52.674;13.574;2023-11-19T12:41:03;10.10;;;2.95;;
80334;SDS011;69653;52.674;13.574;2023-11-19T12:43:29;10.82;;;3.22;;
80334;SDS011;69653;52.674;13.574;2023-11-19T12:45:54;14.27;;;3.05;;
80334;SDS011;69653;52.674;13.574;2023-11-19T12:48:20;9.53;;;3.17;;
80334;SDS011;69653;52.674;13.574;2023-11-19T12:50:55;13.07;;;3.40;;
80334;SDS011;69653;52.674;13.574;2023-11-19T12:53:24;13.77;;;3.75;;
80334;SDS011;69653;52.674;13.574;2023-11-19T12:55:51;13.05;;;3.03;;
80334;SDS011;69653;52.674;13.574;2023-11-19T12:58:38;14.55;;;3.33;;
80334;SDS011;69653;52.674;13.574;2023-11-19T13:01:04;14.20;;;3.33;;
80334;SDS011;69653;52.674;13.574;2023-11-19T13:03:31;12.93;;;3.25;;
80334;SDS011;69653;52.674;13.574;2023-11-19T13:06:02;10.27;;;3.03;;
80334;SDS011;69653;52.674;13.574;2023-11-19T13:08:29;11.85;;;2.63;;
80334;SDS011;69653;52.674;13.574;2023-11-19T13:13:31;9.65;;;3.47;;
80334;SDS011;69653;52.674;13.574;2023-11-19T13:16:03;11.32;;;3.05;;
80334;SDS011;69653;52.674;13.574;2023-11-19T13:18:30;11.35;;;2.70;;
80334;SDS011;69653;52.674;13.574;2023-11-19T13:20:56;11.65;;;2.90;;
80334;SDS011;69653;52.674;13.574;2023-11-19T13:23:24;10.27;;;2.47;;
80334;SDS011;69653;52.674;13.574;2023-11-19T13:25:50;15.87;;;3.20;;
80334;SDS011;69653;52.674;13.574;2023-11-19T13:28:15;14.17;;;3.27;;
80334;SDS011;69653;52.674;13.574;2023-11-19T13:30:41;9.27;;;2.97;;
80334;SDS011;69653;52.674;13.574;2023-11-19T13:33:06;9.73;;;3.13;;
80334;SDS011;69653;52.674;13.574;2023-11-19T13:35:31;12.17;;;3.00;;
80334;SDS011;69653;52.674;13.574;2023-11-19T13:37:57;15.47;;;3.50;;
80334;SDS011;69653;52.674;13.574;2023-11-19T13:40:22;13.37;;;2.80;;
80334;SDS011;69653;52.674;13.574;2023-11-19T13:42:49;10.82;;;2.58;;
80334;SDS011;69653;52.674;13.574;2023-11-19T13:45:14;11.40;;;3.43;;
80334;SDS011;69653;52.674;13.574;2023-11-19T13:47:41;11.13;;;2.78;;
80334;SDS011;69653;52.674;13.574;2023-11-19T13:50:08;25.13;;;3.42;;
80334;SDS011;69653;52.674;13.574;2023-11-19T13:52:38;10.57;;;2.70;;
80334;SDS011;69653;52.674;13.574;2023-11-19T13:55:09;14.32;;;3.72;;
80334;SDS011;69653;52.674;13.574;2023-11-19T13:57:35;11.05;;;2.80;;
80334;SDS011;69653;52.674;13.574;2023-11-19T14:00:02;12.80;;;3.30;;
80334;SDS011;69653;52.674;13.574;2023-11-19T14:02:45;12.98;;;3.53;;
80334;SDS011;69653;52.674;13.574;2023-11-19T14:05:12;14.95;;;3.63;;
80334;SDS011;69653;52.674;13.574;2023-11-19T14:07:39;15.52;;;4.72;;
80334;SDS011;69653;52.674;13.574;2023-11-19T14:10:05;19.45;;;5.28;;
80334;SDS011;69653;52.674;13.574;2023-11-19T14:12:31;15.27;;;4.22;;
80334;SDS011;69653;52.674;13.574;2023-11-19T14:14:57;15.07;;;3.75;;
80334;SDS011;69653;52.674;13.574;2023-11-19T14:17:23;20.83;;;6.00;;
80334;SDS011;69653;52.674;13.574;2023-11-19T14:19:50;18.05;;;4.40;;
80334;SDS011;69653;52.674;13.574;2023-11-19T14:22:15;11.85;;;3.15;;
80334;SDS011;69653;52.674;13.574;2023-11-19T14:24:41;12.50;;;3.20;;
80334;SDS011;69653;52.674;13.574;2023-11-19T14:27:08;14.40;;;3.08;;
80334;SDS011;69653;52.674;13.574;2023-11-19T14:29:34;8.95;;;2.40;;
80334;SDS011;69653;52.674;13.574;2023-11-19T14:32:01;17.02;;;3.78;;
80334;SDS011;69653;52.674;13.574;2023-11-19T14:34:28;15.60;;;3.05;;
80334;SDS011;69653;52.674;13.574;2023-11-19T14:36:57;11.20;;;2.90;;
80334;SDS011;69653;52.674;13.574;2023-11-19T14:39:23;10.23;;;3.53;;
80334;SDS011;69653;52.674;13.574;2023-11-19T14:41:48;11.15;;;2.78;;
80334;SDS011;69653;52.674;13.574;2023-11-19T14:44:14;9.43;;;3.40;;
80334;SDS011;69653;52.674;13.574;2023-11-19T14:46:40;13.55;;;3.53;;
80334;SDS011;69653;52.674;13.574;2023-11-19T14:49:05;17.10;;;4.07;;
80334;SDS011;69653;52.674;13.574;2023-11-19T14:51:35;10.85;;;3.00;;
80334;SDS011;69653;52.674;13.574;2023-11-19T14:54:01;11.10;;;3.13;;
80334;SDS011;69653;52.674;13.574;2023-11-19T14:56:26;15.27;;;3.93;;
80334;SDS011;69653;52.674;13.574;2023-11-19T14:58:52;16.83;;;3.07;;
80334;SDS011;69653;52.674;13.574;2023-11-19T15:01:17;13.33;;;2.97;;
80334;SDS011;69653;52.674;13.574;2023-11-19T15:03:44;15.20;;;4.83;;
80334;SDS011;69653;52.674;13.574;2023-11-19T15:06:09;10.93;;;2.80;;
80334;SDS011;69653;52.674;13.574;2023-11-19T15:08:36;12.20;;;3.25;;